Gilman Hot Springs, California
Current Conditions -  °F | °C
As of 4:15 PM on Friday 24 Oct 2014 (Local Time) from KF70 Reporting Station
Clear Clear  
Wind Chill: 86°   Ceiling: Unl
Heat Index: 86°   Visibility: 10mi
Dew Point: 37°   Wind: 9mph
Humidity: 18%   Direction: 210°SSW
Pressure: 29.96"   Gusts: 16mph
Location:  33.7938°N, 116.92°W
Report Text: KF70 242315Z AUTO 21008G14KT 10SM CLR 30/03 A2996 RMK AO1
Loading
Personal Weather Stations






























Interactive Weather Map
Tropical Storm Tracking
New forecast layout! Learn more

10-Day Weather Forecast

Advertisements
Track Severe Weather on mobile